createdAt,value
2022-08-09T00:00:59.053Z,4.83
2022-08-09T00:04:00.384Z,4.77
2022-08-09T00:06:22.905Z,4.73
2022-08-09T00:08:54.135Z,4.63
2022-08-09T00:11:27.743Z,4.53
2022-08-09T00:14:17.305Z,4.80
2022-08-09T00:16:49.782Z,4.30
2022-08-09T00:19:18.804Z,4.43
2022-08-09T00:21:55.568Z,4.50
2022-08-09T00:24:27.213Z,4.43
2022-08-09T00:26:56.026Z,4.63
2022-08-09T00:29:39.260Z,5.20
2022-08-09T00:32:14.227Z,4.57
2022-08-09T00:34:54.004Z,4.47
2022-08-09T00:37:21.998Z,4.60
2022-08-09T00:40:12.323Z,4.67
2022-08-09T00:44:11.191Z,4.97
2022-08-09T00:45:29.106Z,4.23
2022-08-09T00:47:56.921Z,5.00
2022-08-09T00:50:24.891Z,4.90
2022-08-09T00:52:55.094Z,4.80
2022-08-09T00:56:03.644Z,4.60
2022-08-09T00:58:14.882Z,4.90
2022-08-09T01:00:52.920Z,4.70
2022-08-09T01:03:28.559Z,5.07
2022-08-09T01:05:58.478Z,5.17
2022-08-09T01:08:48.850Z,5.13
2022-08-09T01:11:28.600Z,5.27
2022-08-09T01:14:02.399Z,5.10
2022-08-09T01:16:35.275Z,4.87
2022-08-09T01:19:17.027Z,4.37
2022-08-09T01:22:06.978Z,5.10
2022-08-09T01:24:50.389Z,5.50
2022-08-09T01:27:23.953Z,5.30
2022-08-09T01:29:56.746Z,5.07
2022-08-09T01:32:44.011Z,5.07
2022-08-09T01:35:28.958Z,4.60
2022-08-09T01:38:10.804Z,4.93
2022-08-09T01:40:52.892Z,4.70
2022-08-09T01:43:50.610Z,4.83
2022-08-09T01:46:23.936Z,4.40
2022-08-09T01:48:55.106Z,4.63
2022-08-09T01:51:26.185Z,4.40
2022-08-09T01:53:58.053Z,5.30
2022-08-09T01:56:27.526Z,4.73
2022-08-09T01:58:57.889Z,4.90
2022-08-09T02:01:58.701Z,4.47
2022-08-09T02:04:16.739Z,4.40
2022-08-09T02:07:03.377Z,4.90
2022-08-09T02:09:42.361Z,4.37
2022-08-09T02:12:13.373Z,4.83
2022-08-09T02:14:51.555Z,4.53
2022-08-09T02:17:55.014Z,4.70
2022-08-09T02:20:15.892Z,4.87
2022-08-09T02:22:56.569Z,5.53
2022-08-09T02:25:28.695Z,5.30
2022-08-09T02:28:03.799Z,6.27
2022-08-09T02:30:38.544Z,5.20
2022-08-09T02:33:14.371Z,5.67
2022-08-09T02:36:01.634Z,5.87
2022-08-09T02:38:34.896Z,6.33
2022-08-09T02:41:05.351Z,6.10
2022-08-09T02:43:54.031Z,6.33
2022-08-09T02:46:27.403Z,6.33
2022-08-09T02:48:56.859Z,6.53
2022-08-09T02:51:26.550Z,5.40
2022-08-09T02:54:01.252Z,6.03
2022-08-09T02:56:31.083Z,6.20
2022-08-09T02:59:00.223Z,5.83
2022-08-09T03:01:58.597Z,5.67
2022-08-09T03:04:19.741Z,5.60
2022-08-09T03:06:49.330Z,5.90
2022-08-09T03:09:20.502Z,4.87
2022-08-09T03:12:05.311Z,4.87
2022-08-09T03:14:36.780Z,4.27
2022-08-09T03:17:06.316Z,5.07
2022-08-09T03:19:59.383Z,4.93
2022-08-09T03:22:41.500Z,5.67
2022-08-09T03:25:26.775Z,5.50
2022-08-09T03:28:00.813Z,6.17
2022-08-09T03:30:33.937Z,5.83
2022-08-09T03:33:17.084Z,5.83
2022-08-09T03:36:12.342Z,5.20
2022-08-09T03:38:35.634Z,5.40
2022-08-09T03:41:05.212Z,6.47
2022-08-09T03:43:33.890Z,5.47
2022-08-09T03:46:20.658Z,5.03
2022-08-09T03:48:56.031Z,5.17
2022-08-09T03:51:56.577Z,6.03
2022-08-09T03:54:13.238Z,6.77
2022-08-09T03:56:41.818Z,5.87
2022-08-09T03:59:17.264Z,6.03
2022-08-09T04:01:50.757Z,6.00
2022-08-09T04:04:20.449Z,6.10
2022-08-09T04:06:52.587Z,5.50
2022-08-09T04:09:41.672Z,5.67
2022-08-09T04:12:30.956Z,5.23
2022-08-09T04:15:11.622Z,6.07
2022-08-09T04:17:47.420Z,5.30
2022-08-09T04:20:17.504Z,5.27
2022-08-09T04:22:46.121Z,5.97
2022-08-09T04:25:14.619Z,5.70
2022-08-09T04:27:42.628Z,6.10
2022-08-09T04:30:20.660Z,5.57
2022-08-09T04:32:48.820Z,5.80
2022-08-09T04:35:18.289Z,5.53
2022-08-09T04:37:50.266Z,5.90
2022-08-09T04:40:19.180Z,5.83
2022-08-09T04:42:57.050Z,5.57
2022-08-09T04:45:25.037Z,5.50
2022-08-09T04:48:03.131Z,6.20
2022-08-09T04:50:37.917Z,5.77
2022-08-09T04:53:13.620Z,6.20
2022-08-09T04:55:57.260Z,6.07
2022-08-09T04:58:27.135Z,6.43
2022-08-09T05:00:55.465Z,6.00
2022-08-09T05:03:40.460Z,5.78
2022-08-09T05:06:26.740Z,6.38
2022-08-09T05:09:00.191Z,6.47
2022-08-09T05:11:30.447Z,5.60
2022-08-09T05:14:01.004Z,7.03
2022-08-09T05:16:34.198Z,7.70
2022-08-09T05:19:25.602Z,7.38
2022-08-09T05:21:56.442Z,7.15
2022-08-09T05:24:24.733Z,7.60
2022-08-09T05:26:52.563Z,7.88
2022-08-09T05:29:21.771Z,6.97
2022-08-09T05:31:57.737Z,7.32
2022-08-09T05:34:30.181Z,6.80
2022-08-09T05:37:01.652Z,6.20
2022-08-09T05:39:36.244Z,6.28
2022-08-09T05:42:17.723Z,6.18
2022-08-09T05:44:50.890Z,6.32
2022-08-09T05:47:19.098Z,6.20
2022-08-09T05:50:23.784Z,5.93
2022-08-09T05:52:38.737Z,6.40
2022-08-09T05:55:08.522Z,6.45
2022-08-09T05:57:51.341Z,6.70
2022-08-09T06:00:24.357Z,6.35
2022-08-09T06:02:54.175Z,6.72
2022-08-09T06:05:49.995Z,6.63
2022-08-09T06:08:11.886Z,7.57
2022-08-09T06:10:40.189Z,11.40
2022-08-09T06:13:19.022Z,7.10
2022-08-09T06:15:51.342Z,7.70
2022-08-09T06:18:25.361Z,7.53
2022-08-09T06:20:57.178Z,7.15
2022-08-09T06:23:58.206Z,6.75
2022-08-09T06:26:20.167Z,6.90
2022-08-09T06:29:01.018Z,6.40
2022-08-09T06:31:39.905Z,7.82
2022-08-09T06:34:22.688Z,8.18
2022-08-09T06:36:57.173Z,8.25
2022-08-09T06:39:38.806Z,11.85
2022-08-09T06:42:15.422Z,7.50
2022-08-09T06:44:43.422Z,7.88
2022-08-09T06:47:11.655Z,7.10
2022-08-09T06:49:52.332Z,7.10
2022-08-09T06:52:28.938Z,8.27
2022-08-09T06:54:58.678Z,7.32
2022-08-09T06:58:01.409Z,7.07
2022-08-09T07:00:51.173Z,6.28
2022-08-09T07:03:05.283Z,6.95
2022-08-09T07:05:58.372Z,7.43
2022-08-09T07:08:22.296Z,6.82
2022-08-09T07:10:54.380Z,6.22
2022-08-09T07:13:28.056Z,5.90
2022-08-09T07:16:41.781Z,5.93
2022-08-09T07:18:47.475Z,5.82
2022-08-09T07:21:18.738Z,6.00
2022-08-09T07:23:56.334Z,4.78
2022-08-09T07:26:29.453Z,6.03
2022-08-09T07:29:08.822Z,6.00
2022-08-09T07:31:45.399Z,6.30
2022-08-09T07:34:19.596Z,5.30
2022-08-09T07:36:49.436Z,5.00
2022-08-09T07:39:20.101Z,5.10
2022-08-09T07:42:07.522Z,5.40
2022-08-09T07:44:50.882Z,5.15
2022-08-09T07:47:21.183Z,4.90
2022-08-09T07:50:04.263Z,5.05
2022-08-09T07:52:36.760Z,4.97
2022-08-09T07:55:09.565Z,5.63
2022-08-09T07:57:47.300Z,6.15
2022-08-09T08:00:20.780Z,7.57
2022-08-09T08:03:04.467Z,5.90
2022-08-09T08:05:53.621Z,4.40
2022-08-09T08:09:00.939Z,4.97
2022-08-09T08:12:09.661Z,5.32
2022-08-09T08:13:58.649Z,4.30
2022-08-09T08:16:29.957Z,4.95
2022-08-09T08:19:02.962Z,4.28
2022-08-09T08:21:32.553Z,4.40
2022-08-09T08:24:00.932Z,4.25
2022-08-09T08:26:54.839Z,4.32
2022-08-09T08:29:20.290Z,4.05
2022-08-09T08:32:03.883Z,3.55
2022-08-09T08:34:34.532Z,4.25
2022-08-09T08:37:02.856Z,3.47
2022-08-09T08:39:38.213Z,3.85
2022-08-09T08:42:08.481Z,3.38
2022-08-09T08:44:39.492Z,3.60
2022-08-09T08:47:13.172Z,3.78
2022-08-09T08:49:47.410Z,4.28
2022-08-09T08:52:50.408Z,3.63
2022-08-09T08:55:08.137Z,3.40
2022-08-09T08:57:37.498Z,4.03
2022-08-09T09:00:20.431Z,3.60
2022-08-09T09:03:04.480Z,3.42
2022-08-09T09:05:58.826Z,3.80
2022-08-09T09:08:31.789Z,3.20
2022-08-09T09:11:02.569Z,2.78
2022-08-09T09:13:41.572Z,3.28
2022-08-09T09:16:16.879Z,4.55
2022-08-09T09:18:51.923Z,3.92
2022-08-09T09:21:31.714Z,3.13
2022-08-09T09:24:11.265Z,2.53
2022-08-09T09:26:55.652Z,2.70
2022-08-09T09:29:40.982Z,2.50
2022-08-09T09:32:34.575Z,2.55
2022-08-09T09:35:09.228Z,2.55
2022-08-09T09:37:40.586Z,3.33
2022-08-09T09:40:11.826Z,2.95
2022-08-09T09:42:43.117Z,3.00
2022-08-09T09:45:25.839Z,2.50
2022-08-09T09:47:58.982Z,2.30
2022-08-09T09:50:50.591Z,2.10
2022-08-09T09:53:20.423Z,1.80
2022-08-09T09:55:57.579Z,2.05
2022-08-09T09:58:45.684Z,2.38
2022-08-09T10:01:36.935Z,2.40
2022-08-09T10:04:16.181Z,1.70
2022-08-09T10:06:51.858Z,1.98
2022-08-09T10:09:23.973Z,2.42
2022-08-09T10:12:12.354Z,2.30
2022-08-09T10:14:48.405Z,2.28
2022-08-09T10:17:50.550Z,2.47
2022-08-09T10:20:10.894Z,2.63
2022-08-09T10:22:45.352Z,1.42
2022-08-09T10:25:14.195Z,1.55
2022-08-09T10:27:45.211Z,2.22
2022-08-09T10:34:04.937Z,1.85
2022-08-09T10:36:04.619Z,1.55
2022-08-09T10:38:55.465Z,1.60
2022-08-09T10:41:20.955Z,2.17
2022-08-09T10:43:58.868Z,1.88
2022-08-09T10:46:54.670Z,1.58
2022-08-09T10:49:42.782Z,1.70
2022-08-09T10:52:26.417Z,1.48
2022-08-09T10:54:54.970Z,1.60
2022-08-09T10:57:23.649Z,2.05
2022-08-09T10:59:58.194Z,1.80
2022-08-09T11:03:13.709Z,2.35
2022-08-09T11:05:30.297Z,2.10
2022-08-09T11:08:30.206Z,2.15
2022-08-09T11:11:08.949Z,1.80
2022-08-09T11:13:51.184Z,1.65
2022-08-09T11:16:36.994Z,1.85
2022-08-09T11:19:09.332Z,2.00
2022-08-09T11:22:04.936Z,2.22
2022-08-09T11:24:57.685Z,2.50
2022-08-09T11:28:03.580Z,2.83
2022-08-09T11:30:34.274Z,2.20
2022-08-09T11:33:04.409Z,2.78
2022-08-09T11:35:49.516Z,3.05
2022-08-09T11:38:19.085Z,2.63
2022-08-09T11:40:53.050Z,3.15
2022-08-09T11:43:38.812Z,3.28
2022-08-09T11:46:08.779Z,2.80
2022-08-09T11:48:48.816Z,2.83
2022-08-09T11:52:49.523Z,3.05
2022-08-09T11:54:27.687Z,2.80
2022-08-09T11:57:47.013Z,3.20
2022-08-09T12:00:16.451Z,2.90
2022-08-09T12:02:51.189Z,3.05
2022-08-09T12:05:22.906Z,5.43
2022-08-09T12:07:52.740Z,3.13
2022-08-09T12:10:39.635Z,3.65
2022-08-09T12:14:09.787Z,3.33
2022-08-09T12:16:01.887Z,4.03
2022-08-09T12:18:33.701Z,3.55
2022-08-09T12:21:03.200Z,2.28
2022-08-09T12:23:58.044Z,3.20
2022-08-09T12:26:25.991Z,3.00
2022-08-09T12:29:09.881Z,3.05
2022-08-09T12:31:59.023Z,2.58
2022-08-09T12:34:35.304Z,3.03
2022-08-09T12:37:22.220Z,3.40
2022-08-09T12:40:03.153Z,2.47
2022-08-09T12:42:34.572Z,2.65
2022-08-09T12:45:03.300Z,3.25
2022-08-09T12:47:52.627Z,3.63
2022-08-09T12:50:23.672Z,3.03
2022-08-09T12:53:09.329Z,2.83
2022-08-09T12:56:16.204Z,3.08
2022-08-09T12:58:30.390Z,2.92
2022-08-09T13:00:59.903Z,3.20
2022-08-09T13:03:53.201Z,3.00
2022-08-09T13:06:35.840Z,2.58
2022-08-09T13:09:07.752Z,3.10
2022-08-09T13:11:39.272Z,2.83
2022-08-09T13:14:41.459Z,3.15
2022-08-09T13:17:01.165Z,3.03
2022-08-09T13:20:07.365Z,2.50
2022-08-09T13:22:37.159Z,2.45
2022-08-09T13:25:11.882Z,3.10
2022-08-09T13:27:48.738Z,2.40
2022-08-09T13:30:51.141Z,2.55
2022-08-09T13:33:17.269Z,2.42
2022-08-09T13:36:24.825Z,2.25
2022-08-09T13:38:57.570Z,2.65
2022-08-09T13:41:57.941Z,2.60
2022-08-09T13:44:16.540Z,2.88
2022-08-09T13:47:27.569Z,2.75
2022-08-09T13:49:37.813Z,3.00
2022-08-09T13:52:11.251Z,3.28
2022-08-09T13:54:58.998Z,3.05
2022-08-09T13:57:36.933Z,2.92
2022-08-09T14:00:12.056Z,2.80
2022-08-09T14:03:04.330Z,2.83
2022-08-09T14:05:59.405Z,2.90
2022-08-09T14:08:22.563Z,2.85
2022-08-09T14:10:52.191Z,2.67
2022-08-09T14:14:15.785Z,2.55
2022-08-09T14:16:14.858Z,2.83
2022-08-09T14:18:45.804Z,2.83
2022-08-09T14:21:18.894Z,2.83
2022-08-09T14:23:55.201Z,3.33
2022-08-09T14:26:32.670Z,3.00
2022-08-09T14:29:07.562Z,3.47
2022-08-09T14:31:53.830Z,2.85
2022-08-09T14:34:27.207Z,3.20
2022-08-09T14:37:00.434Z,3.25
2022-08-09T14:39:46.134Z,2.58
2022-08-09T14:42:30.357Z,3.35
2022-08-09T14:46:46.095Z,2.78
2022-08-09T14:47:58.102Z,3.10
2022-08-09T14:50:28.695Z,2.72
2022-08-09T14:52:57.832Z,3.13
2022-08-09T14:55:29.260Z,3.42
2022-08-09T14:58:00.607Z,2.92
2022-08-09T15:00:33.311Z,3.00
2022-08-09T15:03:01.748Z,2.80
2022-08-09T15:05:32.414Z,3.42
2022-08-09T15:08:00.233Z,2.97
2022-08-09T15:10:29.084Z,3.22
2022-08-09T15:13:00.143Z,3.30
2022-08-09T15:15:29.958Z,3.05
2022-08-09T15:18:04.139Z,3.10
2022-08-09T15:21:55.998Z,3.25
2022-08-09T15:24:01.406Z,3.38
2022-08-09T15:26:19.047Z,2.90
2022-08-09T15:29:02.492Z,2.65
2022-08-09T15:31:41.002Z,3.25
2022-08-09T15:34:32.205Z,2.90
2022-08-09T15:37:01.029Z,2.95
2022-08-09T15:39:43.849Z,3.03
2022-08-09T15:42:19.735Z,2.90
2022-08-09T15:44:49.804Z,2.75
2022-08-09T15:47:21.594Z,3.08
2022-08-09T15:50:04.477Z,3.05
2022-08-09T15:52:33.591Z,3.28
2022-08-09T15:55:03.455Z,3.50
2022-08-09T15:57:35.117Z,3.08
2022-08-09T16:00:05.609Z,2.95
2022-08-09T16:02:34.127Z,3.38
2022-08-09T16:05:04.380Z,3.03
2022-08-09T16:07:38.961Z,2.95
2022-08-09T16:10:11.446Z,3.30
2022-08-09T16:12:50.187Z,3.05
2022-08-09T16:16:09.822Z,3.80
2022-08-09T16:18:08.843Z,3.28
2022-08-09T16:20:41.549Z,2.22
2022-08-09T16:23:11.293Z,3.03
2022-08-09T16:25:40.532Z,2.70
2022-08-09T16:28:12.034Z,2.70
2022-08-09T16:30:44.783Z,2.50
2022-08-09T16:33:23.424Z,2.92
2022-08-09T16:35:58.365Z,2.90
2022-08-09T16:38:29.667Z,3.38
2022-08-09T16:40:57.869Z,3.30
2022-08-09T16:43:26.563Z,2.40
2022-08-09T16:45:54.587Z,2.72
2022-08-09T16:48:39.466Z,2.47
2022-08-09T16:51:15.838Z,2.70
2022-08-09T16:54:08.958Z,2.70
2022-08-09T16:56:32.670Z,2.45
2022-08-09T16:59:06.873Z,2.65
2022-08-09T17:01:38.997Z,2.70
2022-08-09T17:04:10.598Z,2.40
2022-08-09T17:08:41.211Z,2.40
2022-08-09T17:09:47.182Z,2.35
2022-08-09T17:12:17.036Z,2.85
2022-08-09T17:14:47.619Z,2.65
2022-08-09T17:17:26.697Z,2.88
2022-08-09T17:20:32.647Z,2.67
2022-08-09T17:22:50.293Z,2.53
2022-08-09T17:25:22.137Z,2.55
2022-08-09T17:27:54.049Z,2.38
2022-08-09T17:30:25.795Z,2.53
2022-08-09T17:32:54.336Z,2.42
2022-08-09T17:35:22.685Z,3.22
2022-08-09T17:38:14.445Z,2.60
2022-08-09T17:40:47.104Z,2.70
2022-08-09T17:43:34.509Z,2.45
2022-08-09T17:46:06.743Z,3.13
2022-08-09T17:48:39.457Z,2.55
2022-08-09T17:51:18.062Z,3.38
2022-08-09T17:53:51.825Z,3.45
2022-08-09T17:56:27.620Z,3.55
2022-08-09T17:58:58.320Z,2.72
2022-08-09T18:01:40.955Z,3.25
2022-08-09T18:04:17.774Z,4.20
2022-08-09T18:06:54.190Z,3.50
2022-08-09T18:09:35.663Z,3.28
2022-08-09T18:12:17.699Z,3.55
2022-08-09T18:14:50.032Z,4.65
2022-08-09T18:18:01.150Z,5.32
2022-08-09T18:20:57.009Z,4.43
2022-08-09T18:22:59.800Z,5.10
2022-08-09T18:25:50.096Z,4.90
2022-08-09T18:30:35.240Z,4.45
2022-08-09T18:31:09.870Z,6.80
2022-08-09T18:33:40.222Z,8.45
2022-08-09T18:36:08.929Z,6.60
2022-08-09T18:38:42.580Z,5.15
2022-08-09T18:41:12.007Z,5.40
2022-08-09T18:43:53.018Z,4.38
2022-08-09T18:46:50.727Z,3.88
2022-08-09T18:49:11.442Z,3.53
2022-08-09T18:51:55.442Z,3.97
2022-08-09T18:54:29.593Z,3.35
2022-08-09T18:57:05.766Z,3.75
2022-08-09T18:59:37.310Z,3.40
2022-08-09T19:02:16.831Z,3.60
2022-08-09T19:04:47.742Z,4.68
2022-08-09T19:07:16.642Z,4.05
2022-08-09T19:10:15.505Z,4.07
2022-08-09T19:12:36.694Z,4.18
2022-08-09T19:15:06.455Z,5.70
2022-08-09T19:17:54.303Z,4.90
2022-08-09T19:20:23.047Z,4.95
2022-08-09T19:22:54.016Z,5.38
2022-08-09T19:25:41.319Z,4.50
2022-08-09T19:28:13.671Z,4.72
2022-08-09T19:30:44.725Z,4.60
2022-08-09T19:33:19.500Z,4.68
2022-08-09T19:35:57.423Z,6.03
2022-08-09T19:38:26.670Z,5.68
2022-08-09T19:40:55.287Z,4.97
2022-08-09T19:43:57.845Z,5.32
2022-08-09T19:46:14.977Z,5.75
2022-08-09T19:49:01.988Z,4.75
2022-08-09T19:51:31.428Z,5.43
2022-08-09T19:53:59.389Z,5.90
2022-08-09T19:56:29.061Z,5.40
2022-08-09T19:59:18.206Z,6.60
2022-08-09T20:02:03.518Z,5.32
2022-08-09T20:04:40.454Z,4.88
2022-08-09T20:07:21.209Z,4.43
2022-08-09T20:09:49.235Z,4.00
2022-08-09T20:12:31.683Z,4.28
2022-08-09T20:16:31.443Z,4.20
2022-08-09T20:17:56.640Z,4.43
2022-08-09T20:20:25.162Z,4.30
2022-08-09T20:22:56.516Z,4.10
2022-08-09T20:25:25.278Z,4.20
2022-08-09T20:27:54.395Z,4.53
2022-08-09T20:30:25.184Z,4.93
2022-08-09T20:32:53.709Z,4.40
2022-08-09T20:35:22.009Z,3.22
2022-08-09T20:38:23.844Z,3.80
2022-08-09T20:40:41.102Z,3.45
2022-08-09T20:43:18.493Z,3.20
2022-08-09T20:45:57.143Z,3.60
2022-08-09T20:48:28.969Z,3.78
2022-08-09T20:50:59.086Z,3.72
2022-08-09T20:53:37.447Z,4.10
2022-08-09T20:56:08.877Z,3.75
2022-08-09T20:58:38.024Z,3.47
2022-08-09T21:01:32.521Z,3.20
2022-08-09T21:04:35.632Z,3.30
2022-08-09T21:06:45.882Z,3.92
2022-08-09T21:09:14.352Z,3.42
2022-08-09T21:14:37.008Z,3.83
2022-08-09T21:18:23.905Z,4.10
2022-08-09T21:20:04.599Z,3.63
2022-08-09T21:22:53.922Z,3.50
2022-08-09T21:25:44.047Z,3.95
2022-08-09T21:28:22.099Z,3.80
2022-08-09T21:31:19.487Z,4.18
2022-08-09T21:33:52.102Z,4.57
2022-08-09T21:36:22.954Z,3.55
2022-08-09T21:38:57.590Z,4.00
2022-08-09T21:42:05.739Z,3.92
2022-08-09T21:44:15.249Z,4.40
2022-08-09T21:47:01.718Z,4.23
2022-08-09T21:49:40.634Z,4.10
2022-08-09T21:52:14.634Z,4.60
2022-08-09T21:54:51.102Z,4.50
2022-08-09T21:57:39.513Z,4.72
2022-08-09T22:00:16.156Z,4.65
2022-08-09T22:02:44.224Z,4.87
2022-08-09T22:05:37.307Z,4.72
2022-08-09T22:08:14.479Z,4.90
2022-08-09T22:11:49.671Z,4.57
2022-08-09T22:13:34.914Z,4.72
2022-08-09T22:16:04.959Z,4.70
2022-08-09T22:18:35.771Z,5.25
2022-08-09T22:21:09.214Z,4.82
2022-08-09T22:24:01.221Z,5.07
2022-08-09T22:26:33.973Z,4.35
2022-08-09T22:29:05.371Z,5.10
2022-08-09T22:31:35.588Z,5.43
2022-08-09T22:34:03.505Z,4.80
2022-08-09T22:36:46.320Z,5.55
2022-08-09T22:39:47.265Z,5.72
2022-08-09T22:42:02.842Z,5.78
2022-08-09T22:44:32.822Z,4.68
2022-08-09T22:48:10.229Z,4.85
2022-08-09T22:49:52.274Z,5.63
2022-08-09T22:52:23.485Z,5.05
2022-08-09T22:54:52.446Z,5.18
2022-08-09T22:57:20.953Z,4.97
2022-08-09T22:59:56.884Z,4.97
2022-08-09T23:02:27.325Z,4.83
2022-08-09T23:04:57.031Z,5.53
2022-08-09T23:08:29.163Z,4.57
2022-08-09T23:10:32.565Z,5.70
2022-08-09T23:13:00.751Z,5.47
2022-08-09T23:15:30.803Z,5.03
2022-08-09T23:17:59.382Z,5.80
2022-08-09T23:20:28.847Z,5.43
2022-08-09T23:22:58.733Z,5.43
2022-08-09T23:25:28.793Z,4.93
2022-08-09T23:28:15.345Z,6.00
2022-08-09T23:30:51.713Z,5.20
2022-08-09T23:33:20.496Z,5.68
2022-08-09T23:36:05.093Z,5.57
2022-08-09T23:38:48.788Z,6.10
2022-08-09T23:41:28.243Z,5.90
2022-08-09T23:44:00.557Z,5.83
2022-08-09T23:46:28.758Z,5.40
2022-08-09T23:48:57.010Z,5.73
2022-08-09T23:51:25.415Z,5.50
2022-08-09T23:54:02.034Z,6.63
2022-08-09T23:56:52.000Z,5.10
2022-08-09T23:59:20.554Z,6.03
